createdAt,value
2023-05-22T00:02:22.678Z,24.87
2023-05-22T00:04:56.488Z,24.87
2023-05-22T00:07:29.363Z,24.86
2023-05-22T00:10:02.349Z,24.86
2023-05-22T00:12:35.667Z,24.85
2023-05-22T00:15:09.583Z,24.84
2023-05-22T00:17:43.532Z,24.83
2023-05-22T00:20:16.486Z,24.83
2023-05-22T00:22:49.450Z,24.82
2023-05-22T00:25:22.793Z,24.82
2023-05-22T00:27:56.432Z,24.81
2023-05-22T00:30:29.535Z,24.81
2023-05-22T00:33:03.382Z,24.80
2023-05-22T00:35:36.438Z,24.80
2023-05-22T00:38:09.250Z,24.79
2023-05-22T00:40:42.478Z,24.79
2023-05-22T00:43:15.454Z,24.79
2023-05-22T00:45:48.605Z,24.78
2023-05-22T00:48:22.484Z,24.78
2023-05-22T00:50:55.472Z,24.77
2023-05-22T00:53:28.490Z,24.76
2023-05-22T00:56:01.159Z,24.76
2023-05-22T00:58:34.561Z,24.75
2023-05-22T01:01:07.570Z,24.75
2023-05-22T01:03:40.318Z,24.74
2023-05-22T01:06:13.481Z,24.74
2023-05-22T01:08:46.542Z,24.73
2023-05-22T01:11:19.483Z,24.72
2023-05-22T01:13:52.477Z,24.72
2023-05-22T01:16:25.626Z,24.71
2023-05-22T01:18:58.748Z,24.70
2023-05-22T01:21:32.648Z,24.70
2023-05-22T01:24:06.688Z,24.69
2023-05-22T01:26:45.213Z,24.68
2023-05-22T01:29:18.622Z,24.68
2023-05-22T01:31:51.459Z,24.67
2023-05-22T01:34:24.558Z,24.67
2023-05-22T01:37:01.391Z,24.66
2023-05-22T01:39:34.553Z,24.65
2023-05-22T01:42:07.480Z,24.65
2023-05-22T01:44:40.570Z,24.64
2023-05-22T01:47:13.306Z,24.64
2023-05-22T01:49:46.561Z,24.63
2023-05-22T01:52:19.536Z,24.62
2023-05-22T01:54:52.832Z,24.62
2023-05-22T01:57:26.591Z,24.61
2023-05-22T01:59:59.511Z,24.61
2023-05-22T02:02:32.585Z,24.60
2023-05-22T02:05:05.549Z,24.60
2023-05-22T02:07:38.491Z,24.59
2023-05-22T02:10:11.554Z,24.59
2023-05-22T02:12:44.616Z,24.58
2023-05-22T02:15:17.564Z,24.58
2023-05-22T02:17:50.568Z,24.57
2023-05-22T02:20:23.549Z,24.57
2023-05-22T02:22:56.594Z,24.56
2023-05-22T02:25:29.621Z,24.56
2023-05-22T02:28:02.802Z,24.55
2023-05-22T02:30:36.903Z,24.54
2023-05-22T02:33:09.692Z,24.54
2023-05-22T02:35:42.617Z,24.53
2023-05-22T02:38:15.445Z,24.53
2023-05-22T02:40:48.606Z,24.52
2023-05-22T02:43:21.563Z,24.52
2023-05-22T02:45:54.708Z,24.51
2023-05-22T02:48:27.706Z,24.51
2023-05-22T02:51:00.553Z,24.50
2023-05-22T02:53:33.803Z,24.49
2023-05-22T02:56:07.588Z,24.49
2023-05-22T02:58:40.678Z,24.48
2023-05-22T03:01:13.699Z,24.48
2023-05-22T03:03:46.842Z,24.47
2023-05-22T03:06:19.649Z,24.47
2023-05-22T03:08:52.851Z,24.46
2023-05-22T03:11:26.681Z,24.46
2023-05-22T03:13:59.679Z,24.45
2023-05-22T03:16:46.381Z,24.45
2023-05-22T03:19:19.764Z,24.44
2023-05-22T03:21:52.649Z,24.44
2023-05-22T03:24:25.938Z,24.43
2023-05-22T03:26:59.723Z,24.43
2023-05-22T03:29:32.714Z,24.42
2023-05-22T03:32:05.523Z,24.42
2023-05-22T03:34:38.659Z,24.41
2023-05-22T03:37:11.629Z,24.41
2023-05-22T03:39:44.774Z,24.41
2023-05-22T03:42:17.653Z,24.40
2023-05-22T03:44:50.574Z,24.40
2023-05-22T03:47:23.933Z,24.39
2023-05-22T03:49:57.825Z,24.39
2023-05-22T03:52:31.525Z,24.38
2023-05-22T03:55:04.493Z,24.38
2023-05-22T03:57:37.814Z,24.37
2023-05-22T04:00:10.709Z,24.37
2023-05-22T04:02:43.571Z,24.36
2023-05-22T04:05:16.659Z,24.36
2023-05-22T04:07:49.724Z,24.36
2023-05-22T04:10:22.593Z,24.35
2023-05-22T04:12:55.540Z,24.35
2023-05-22T04:15:31.542Z,24.34
2023-05-22T04:18:05.018Z,24.34
2023-05-22T04:20:38.969Z,24.33
2023-05-22T04:23:11.668Z,24.33
2023-05-22T04:25:44.737Z,24.32
2023-05-22T04:28:17.745Z,24.32
2023-05-22T04:30:50.879Z,24.31
2023-05-22T04:33:23.635Z,24.31
2023-05-22T04:35:56.803Z,24.31
2023-05-22T04:38:29.749Z,24.30
2023-05-22T04:41:05.861Z,24.29
2023-05-22T04:43:38.889Z,24.29
2023-05-22T04:46:11.784Z,24.29
2023-05-22T04:48:44.895Z,24.28
2023-05-22T04:51:17.816Z,24.28
2023-05-22T04:53:50.867Z,24.27
2023-05-22T04:56:35.350Z,24.25
2023-05-22T04:58:57.334Z,24.20
2023-05-22T05:01:33.070Z,24.13
2023-05-22T05:04:04.030Z,24.07
2023-05-22T05:06:36.641Z,24.00
2023-05-22T05:09:09.671Z,23.93
2023-05-22T05:11:42.602Z,23.87
2023-05-22T05:14:15.797Z,23.80
2023-05-22T05:16:48.804Z,23.75
2023-05-22T05:19:21.826Z,23.69
2023-05-22T05:21:54.844Z,23.64
2023-05-22T05:24:27.811Z,23.59
2023-05-22T05:27:00.776Z,23.55
2023-05-22T05:29:33.796Z,23.50
2023-05-22T05:32:06.619Z,23.45
2023-05-22T05:34:39.716Z,23.39
2023-05-22T05:37:12.726Z,23.33
2023-05-22T05:39:45.612Z,23.27
2023-05-22T05:42:18.813Z,23.21
2023-05-22T05:44:51.678Z,23.16
2023-05-22T05:47:24.950Z,23.11
2023-05-22T05:49:57.564Z,23.06
2023-05-22T05:52:30.556Z,23.01
2023-05-22T05:55:03.574Z,22.96
2023-05-22T05:57:36.972Z,22.92
2023-05-22T06:00:09.850Z,22.89
2023-05-22T06:02:42.818Z,22.88
2023-05-22T06:05:15.650Z,22.88
2023-05-22T06:07:48.916Z,22.90
2023-05-22T06:10:21.861Z,22.92
2023-05-22T06:12:54.720Z,22.96
2023-05-22T06:15:27.585Z,23.00
2023-05-22T06:18:00.918Z,23.03
2023-05-22T06:20:33.796Z,23.07
2023-05-22T06:23:06.868Z,23.11
2023-05-22T06:25:40.008Z,23.15
2023-05-22T06:28:13.015Z,23.19
2023-05-22T06:30:46.185Z,23.22
2023-05-22T06:33:18.706Z,23.26
2023-05-22T06:35:52.012Z,23.29
2023-05-22T06:38:24.640Z,23.32
2023-05-22T06:40:57.613Z,23.35
2023-05-22T06:43:30.609Z,23.38
2023-05-22T06:46:03.709Z,23.41
2023-05-22T06:48:36.850Z,23.44
2023-05-22T06:51:10.002Z,23.47
2023-05-22T06:53:42.794Z,23.49
2023-05-22T06:56:15.753Z,23.52
2023-05-22T06:58:48.648Z,23.54
2023-05-22T07:01:21.663Z,23.57
2023-05-22T07:03:54.783Z,23.59
2023-05-22T07:06:27.768Z,23.61
2023-05-22T07:09:00.917Z,23.62
2023-05-22T07:11:33.951Z,23.65
2023-05-22T07:14:07.204Z,23.67
2023-05-22T07:16:41.014Z,23.68
2023-05-22T07:19:13.865Z,23.70
2023-05-22T07:21:46.856Z,23.72
2023-05-22T07:24:19.964Z,23.74
2023-05-22T07:26:53.092Z,23.75
2023-05-22T07:29:25.951Z,23.76
2023-05-22T07:31:59.086Z,23.78
2023-05-22T07:34:32.078Z,23.80
2023-05-22T07:37:04.952Z,23.81
2023-05-22T07:39:38.014Z,23.83
2023-05-22T07:42:11.395Z,23.84
2023-05-22T07:44:45.107Z,23.85
2023-05-22T07:47:17.797Z,23.86
2023-05-22T07:49:51.398Z,23.87
2023-05-22T07:52:23.987Z,23.88
2023-05-22T07:54:56.967Z,23.90
2023-05-22T07:57:30.099Z,23.91
2023-05-22T08:00:02.983Z,23.92
2023-05-22T08:02:35.868Z,23.92
2023-05-22T08:05:09.166Z,23.94
2023-05-22T08:07:41.843Z,23.94
2023-05-22T08:10:15.157Z,23.95
2023-05-22T08:12:48.182Z,23.97
2023-05-22T08:15:20.971Z,23.97
2023-05-22T08:17:54.145Z,23.98
2023-05-22T08:20:41.484Z,23.99
2023-05-22T08:23:13.940Z,24.00
2023-05-22T08:25:53.081Z,24.01
2023-05-22T08:28:26.072Z,24.02
2023-05-22T08:30:58.778Z,24.03
2023-05-22T08:33:31.951Z,24.04
2023-05-22T08:36:05.208Z,24.05
2023-05-22T08:38:38.197Z,24.06
2023-05-22T08:41:10.915Z,24.07
2023-05-22T08:43:44.196Z,24.07
2023-05-22T08:46:31.070Z,24.08
2023-05-22T08:49:04.069Z,24.09
2023-05-22T08:51:37.219Z,24.10
2023-05-22T08:54:09.936Z,24.11
2023-05-22T08:56:53.311Z,24.12
2023-05-22T08:59:16.024Z,24.12
2023-05-22T09:01:49.232Z,24.13
2023-05-22T09:04:22.101Z,24.15
2023-05-22T09:06:54.986Z,24.16
2023-05-22T09:09:28.045Z,24.17
2023-05-22T09:12:01.096Z,24.18
2023-05-22T09:14:34.014Z,24.19
2023-05-22T09:17:06.961Z,24.20
2023-05-22T09:19:40.471Z,24.21
2023-05-22T09:22:13.217Z,24.22
2023-05-22T09:24:46.211Z,24.23
2023-05-22T09:27:19.366Z,24.24
2023-05-22T09:29:53.296Z,24.25
2023-05-22T09:32:26.114Z,24.26
2023-05-22T09:34:59.138Z,24.27
2023-05-22T09:37:32.247Z,24.28
2023-05-22T09:40:05.236Z,24.28
2023-05-22T09:42:38.466Z,24.29
2023-05-22T09:45:12.316Z,24.30
2023-05-22T09:47:46.298Z,24.30
2023-05-22T09:50:19.403Z,24.31
2023-05-22T09:52:53.246Z,24.32
2023-05-22T09:55:26.091Z,24.32
2023-05-22T09:57:59.191Z,24.33
2023-05-22T10:00:31.987Z,24.33
2023-05-22T10:03:05.253Z,24.33
2023-05-22T10:05:38.278Z,24.34
2023-05-22T10:08:11.304Z,24.34
2023-05-22T10:10:43.928Z,24.34
2023-05-22T10:13:17.252Z,24.35
2023-05-22T10:15:50.357Z,24.35
2023-05-22T10:18:23.270Z,24.35
2023-05-22T10:20:56.312Z,24.35
2023-05-22T10:23:29.237Z,24.35
2023-05-22T10:26:02.205Z,24.35
2023-05-22T10:28:35.215Z,24.35
2023-05-22T10:31:08.438Z,24.35
2023-05-22T10:33:42.457Z,24.35
2023-05-22T10:36:16.284Z,24.35
2023-05-22T10:38:49.556Z,24.36
2023-05-22T10:41:23.324Z,24.36
2023-05-22T10:43:56.383Z,24.36
2023-05-22T10:46:29.342Z,24.36
2023-05-22T10:49:02.236Z,24.36
2023-05-22T10:51:35.263Z,24.36
2023-05-22T10:54:08.456Z,24.37
2023-05-22T10:56:41.390Z,24.37
2023-05-22T10:59:14.269Z,24.37
2023-05-22T11:01:47.564Z,24.37
2023-05-22T11:04:21.290Z,24.38
2023-05-22T11:06:54.317Z,24.38
2023-05-22T11:09:27.492Z,24.38
2023-05-22T11:12:00.277Z,24.39
2023-05-22T11:14:32.992Z,24.39
2023-05-22T11:17:06.278Z,24.40
2023-05-22T11:19:39.284Z,24.40
2023-05-22T11:22:12.312Z,24.40
2023-05-22T11:24:45.147Z,24.40
2023-05-22T11:27:18.532Z,24.40
2023-05-22T11:29:52.327Z,24.40
2023-05-22T11:32:25.372Z,24.39
2023-05-22T11:34:58.086Z,24.38
2023-05-22T11:37:31.055Z,24.37
2023-05-22T11:40:04.154Z,24.36
2023-05-22T11:42:37.393Z,24.35
2023-05-22T11:45:10.136Z,24.35
2023-05-22T11:47:43.239Z,24.34
2023-05-22T11:50:22.785Z,24.34
2023-05-22T11:52:50.276Z,24.34
2023-05-22T11:55:23.544Z,24.34
2023-05-22T11:57:56.315Z,24.34
2023-05-22T12:00:29.119Z,24.35
2023-05-22T12:03:02.252Z,24.35
2023-05-22T12:05:35.263Z,24.36
2023-05-22T12:08:08.659Z,24.36
2023-05-22T12:10:42.435Z,24.37
2023-05-22T12:13:15.432Z,24.38
2023-05-22T12:15:48.396Z,24.39
2023-05-22T12:18:21.332Z,24.40
2023-05-22T12:20:54.177Z,24.41
2023-05-22T12:23:27.098Z,24.42
2023-05-22T12:26:00.539Z,24.42
2023-05-22T12:28:33.124Z,24.43
2023-05-22T12:31:06.131Z,24.44
2023-05-22T12:33:39.288Z,24.45
2023-05-22T12:36:12.253Z,24.46
2023-05-22T12:38:45.561Z,24.47
2023-05-22T12:41:18.549Z,24.48
2023-05-22T12:43:51.309Z,24.49
2023-05-22T12:46:24.332Z,24.50
2023-05-22T12:48:57.157Z,24.51
2023-05-22T12:51:30.136Z,24.52
2023-05-22T12:54:03.137Z,24.53
2023-05-22T12:56:36.287Z,24.54
2023-05-22T12:59:13.241Z,24.56
2023-05-22T13:01:46.372Z,24.57
2023-05-22T13:04:19.162Z,24.58
2023-05-22T13:06:52.327Z,24.59
2023-05-22T13:09:25.330Z,24.60
2023-05-22T13:12:12.521Z,24.61
2023-05-22T13:14:45.414Z,24.62
2023-05-22T13:17:18.646Z,24.64
2023-05-22T13:19:52.347Z,24.65
2023-05-22T13:22:25.384Z,24.66
2023-05-22T13:24:58.200Z,24.67
2023-05-22T13:27:33.532Z,24.67
2023-05-22T13:30:04.231Z,24.68
2023-05-22T13:32:37.228Z,24.69
2023-05-22T13:35:10.453Z,24.71
2023-05-22T13:37:43.364Z,24.72
2023-05-22T13:40:16.526Z,24.73
2023-05-22T13:42:49.475Z,24.74
2023-05-22T13:45:28.173Z,24.75
2023-05-22T13:48:01.287Z,24.77
2023-05-22T13:50:34.238Z,24.78
2023-05-22T13:53:13.325Z,24.80
2023-05-22T13:55:46.524Z,24.81
2023-05-22T13:58:19.552Z,24.82
2023-05-22T14:00:53.587Z,24.83
2023-05-22T14:03:26.498Z,24.84
2023-05-22T14:05:59.272Z,24.85
2023-05-22T14:08:32.238Z,24.86
2023-05-22T14:11:05.237Z,24.87
2023-05-22T14:13:38.389Z,24.88
2023-05-22T14:16:17.551Z,24.89
2023-05-22T14:18:50.592Z,24.90
2023-05-22T14:21:23.415Z,24.91
2023-05-22T14:23:56.714Z,24.92
2023-05-22T14:26:30.258Z,24.94
2023-05-22T14:29:03.312Z,24.95
2023-05-22T14:31:36.335Z,24.95
2023-05-22T14:34:09.369Z,24.97
2023-05-22T14:36:42.554Z,24.98
2023-05-22T14:39:15.482Z,24.99
2023-05-22T14:41:48.568Z,25.00
2023-05-22T14:44:21.770Z,25.00
2023-05-22T14:46:54.814Z,25.01
2023-05-22T14:49:42.535Z,25.02
2023-05-22T14:52:15.683Z,25.02
2023-05-22T14:54:54.674Z,25.03
2023-05-22T14:57:27.361Z,25.03
2023-05-22T15:00:00.691Z,25.04
2023-05-22T15:02:33.767Z,25.04
2023-05-22T15:05:06.422Z,25.05
2023-05-22T15:07:44.602Z,25.05
2023-05-22T15:10:12.511Z,25.05
2023-05-22T15:12:46.432Z,25.06
2023-05-22T15:15:19.618Z,25.06
2023-05-22T15:17:52.562Z,25.07
2023-05-22T15:20:25.681Z,25.08
2023-05-22T15:22:58.768Z,25.09
2023-05-22T15:25:31.568Z,25.10
2023-05-22T15:28:04.679Z,25.11
2023-05-22T15:30:37.701Z,25.13
2023-05-22T15:33:10.489Z,25.15
2023-05-22T15:35:43.463Z,25.16
2023-05-22T15:38:16.538Z,25.18
2023-05-22T15:40:49.392Z,25.19
2023-05-22T15:43:24.269Z,25.20
2023-05-22T15:45:55.744Z,25.20
2023-05-22T15:48:28.785Z,25.21
2023-05-22T15:51:01.594Z,25.22
2023-05-22T15:53:34.745Z,25.23
2023-05-22T15:56:07.395Z,25.24
2023-05-22T15:58:40.775Z,25.25
2023-05-22T16:01:13.892Z,25.25
2023-05-22T16:03:46.572Z,25.26
2023-05-22T16:06:19.604Z,25.26
2023-05-22T16:08:55.555Z,25.26
2023-05-22T16:11:28.718Z,25.26
2023-05-22T16:14:07.341Z,25.26
2023-05-22T16:16:40.649Z,25.26
2023-05-22T16:19:13.544Z,25.26
2023-05-22T16:21:46.470Z,25.26
2023-05-22T16:24:19.440Z,25.26
2023-05-22T16:26:52.482Z,25.25
2023-05-22T16:29:25.457Z,25.25
2023-05-22T16:31:59.057Z,25.25
2023-05-22T16:34:31.566Z,25.24
2023-05-22T16:37:04.467Z,25.24
2023-05-22T16:39:37.698Z,25.23
2023-05-22T16:42:10.614Z,25.23
2023-05-22T16:44:43.608Z,25.23
2023-05-22T16:47:17.074Z,25.23
2023-05-22T16:49:50.744Z,25.23
2023-05-22T16:52:23.864Z,25.23
2023-05-22T16:54:56.699Z,25.23
2023-05-22T16:57:29.853Z,25.23
2023-05-22T17:00:02.575Z,25.24
2023-05-22T17:02:36.193Z,25.24
2023-05-22T17:05:15.579Z,25.24
2023-05-22T17:07:48.799Z,25.25
2023-05-22T17:10:35.578Z,25.26
2023-05-22T17:13:08.690Z,25.26
2023-05-22T17:15:41.941Z,25.27
2023-05-22T17:18:14.693Z,25.28
2023-05-22T17:20:47.554Z,25.28
2023-05-22T17:23:20.676Z,25.29
2023-05-22T17:25:53.516Z,25.30
2023-05-22T17:28:26.697Z,25.30
2023-05-22T17:30:59.969Z,25.31
2023-05-22T17:33:32.917Z,25.32
2023-05-22T17:36:05.547Z,25.32
2023-05-22T17:38:38.941Z,25.33
2023-05-22T17:41:11.531Z,25.34
2023-05-22T17:43:44.869Z,25.34
2023-05-22T17:46:17.768Z,25.35
2023-05-22T17:48:50.675Z,25.35
2023-05-22T17:51:23.941Z,25.36
2023-05-22T17:53:56.871Z,25.36
2023-05-22T17:56:29.892Z,25.37
2023-05-22T17:59:02.585Z,25.37
2023-05-22T18:01:35.846Z,25.37
2023-05-22T18:04:08.788Z,25.37
2023-05-22T18:06:45.595Z,25.38
2023-05-22T18:09:18.660Z,25.38
2023-05-22T18:11:51.656Z,25.39
2023-05-22T18:14:24.700Z,25.39
2023-05-22T18:16:58.098Z,25.40
2023-05-22T18:19:31.939Z,25.40
2023-05-22T18:22:04.628Z,25.41
2023-05-22T18:24:37.647Z,25.41
2023-05-22T18:27:10.635Z,25.42
2023-05-22T18:29:43.733Z,25.42
2023-05-22T18:32:16.787Z,25.43
2023-05-22T18:35:03.882Z,25.44
2023-05-22T18:37:37.137Z,25.44
2023-05-22T18:40:10.991Z,25.44
2023-05-22T18:42:43.829Z,25.45
2023-05-22T18:45:17.291Z,25.46
2023-05-22T18:47:51.217Z,25.46
2023-05-22T18:50:25.324Z,25.47
2023-05-22T18:52:59.215Z,25.47
2023-05-22T18:55:33.043Z,25.47
2023-05-22T18:58:06.225Z,25.48
2023-05-22T19:00:40.350Z,25.48
2023-05-22T19:03:13.071Z,25.48
2023-05-22T19:05:46.099Z,25.48
2023-05-22T19:08:19.121Z,25.49
2023-05-22T19:10:53.084Z,25.49
2023-05-22T19:13:26.225Z,25.49
2023-05-22T19:16:01.755Z,25.50
2023-05-22T19:18:35.473Z,25.50
2023-05-22T19:21:08.848Z,25.50
2023-05-22T19:23:41.721Z,25.50
2023-05-22T19:26:14.819Z,25.50
2023-05-22T19:28:47.858Z,25.50
2023-05-22T19:31:21.070Z,25.51
2023-05-22T19:33:53.730Z,25.51
2023-05-22T19:36:31.259Z,25.51
2023-05-22T19:39:05.098Z,25.51
2023-05-22T19:41:38.042Z,25.51
2023-05-22T19:44:10.712Z,25.51
2023-05-22T19:46:43.924Z,25.51
2023-05-22T19:49:16.823Z,25.51
2023-05-22T19:51:50.078Z,25.51
2023-05-22T19:54:22.944Z,25.52
2023-05-22T19:56:55.786Z,25.52
2023-05-22T19:59:28.991Z,25.52
2023-05-22T20:02:01.783Z,25.52
2023-05-22T20:04:34.862Z,25.53
2023-05-22T20:07:07.884Z,25.53
2023-05-22T20:09:41.102Z,25.53
2023-05-22T20:12:13.750Z,25.53
2023-05-22T20:14:47.014Z,25.53
2023-05-22T20:17:19.778Z,25.53
2023-05-22T20:19:53.193Z,25.53
2023-05-22T20:22:26.160Z,25.54
2023-05-22T20:24:59.079Z,25.54
2023-05-22T20:27:31.801Z,25.55
2023-05-22T20:30:04.800Z,25.56
2023-05-22T20:32:38.004Z,25.56
2023-05-22T20:35:11.108Z,25.56
2023-05-22T20:37:44.133Z,25.55
2023-05-22T20:40:17.044Z,25.55
2023-05-22T20:42:49.962Z,25.55
2023-05-22T20:45:22.946Z,25.55
2023-05-22T20:47:55.899Z,25.55
2023-05-22T20:50:28.848Z,25.55
2023-05-22T20:53:01.960Z,25.55
2023-05-22T20:55:34.930Z,25.54
2023-05-22T20:58:08.227Z,25.54
2023-05-22T21:00:41.099Z,25.53
2023-05-22T21:03:14.064Z,25.53
2023-05-22T21:05:47.038Z,25.52
2023-05-22T21:08:20.108Z,25.52
2023-05-22T21:10:52.985Z,25.51
2023-05-22T21:13:25.961Z,25.50
2023-05-22T21:15:59.114Z,25.49
2023-05-22T21:18:32.161Z,25.47
2023-05-22T21:21:04.847Z,25.46
2023-05-22T21:23:38.468Z,25.45
2023-05-22T21:26:12.257Z,25.44
2023-05-22T21:28:45.201Z,25.43
2023-05-22T21:31:18.266Z,25.42
2023-05-22T21:33:51.213Z,25.41
2023-05-22T21:36:24.197Z,25.39
2023-05-22T21:38:57.717Z,25.38
2023-05-22T21:41:31.223Z,25.37
2023-05-22T21:44:04.163Z,25.36
2023-05-22T21:46:37.332Z,25.35
2023-05-22T21:49:10.206Z,25.35
2023-05-22T21:51:43.452Z,25.34
2023-05-22T21:54:17.390Z,25.34
2023-05-22T21:56:50.223Z,25.33
2023-05-22T21:59:23.299Z,25.33
2023-05-22T22:01:56.273Z,25.32
2023-05-22T22:04:29.384Z,25.32
2023-05-22T22:07:03.184Z,25.31
2023-05-22T22:09:36.392Z,25.30
2023-05-22T22:12:09.171Z,25.29
2023-05-22T22:14:42.266Z,25.28
2023-05-22T22:17:15.253Z,25.28
2023-05-22T22:19:48.302Z,25.27
2023-05-22T22:22:21.275Z,25.26
2023-05-22T22:24:54.357Z,25.25
2023-05-22T22:27:27.410Z,25.24
2023-05-22T22:30:01.222Z,25.24
2023-05-22T22:32:34.344Z,25.23
2023-05-22T22:35:07.236Z,25.22
2023-05-22T22:37:40.309Z,25.21
2023-05-22T22:40:13.486Z,25.20
2023-05-22T22:42:46.321Z,25.20
2023-05-22T22:45:25.067Z,25.19
2023-05-22T22:47:58.386Z,25.18
2023-05-22T22:50:31.290Z,25.18
2023-05-22T22:53:04.280Z,25.17
2023-05-22T22:55:37.664Z,25.17
2023-05-22T22:58:10.168Z,25.16
2023-05-22T23:00:43.529Z,25.16
2023-05-22T23:03:17.429Z,25.15
2023-05-22T23:05:50.498Z,25.14
2023-05-22T23:08:23.352Z,25.13
2023-05-22T23:10:56.507Z,25.13
2023-05-22T23:13:29.457Z,25.12
2023-05-22T23:16:02.321Z,25.11
2023-05-22T23:18:35.171Z,25.10
2023-05-22T23:21:08.298Z,25.10
2023-05-22T23:23:41.479Z,25.09
2023-05-22T23:26:15.475Z,25.08
2023-05-22T23:28:48.396Z,25.08
2023-05-22T23:31:21.596Z,25.07
2023-05-22T23:33:55.427Z,25.07
2023-05-22T23:36:28.256Z,25.06
2023-05-22T23:39:01.406Z,25.05
2023-05-22T23:41:34.597Z,25.04
2023-05-22T23:44:07.075Z,25.04
2023-05-22T23:46:40.443Z,25.03
2023-05-22T23:49:13.355Z,25.03
2023-05-22T23:51:46.165Z,25.02
2023-05-22T23:54:19.574Z,25.01
2023-05-22T23:56:53.444Z,25.01
2023-05-22T23:59:26.508Z,25.00
